createdAt,value
2018-07-16T00:01:08.213Z,21.73
2018-07-16T00:03:36.857Z,21.55
2018-07-16T00:06:05.586Z,21.47
2018-07-16T00:08:34.280Z,21.52
2018-07-16T00:11:02.866Z,21.58
2018-07-16T00:13:31.562Z,21.40
2018-07-16T00:16:00.221Z,21.60
2018-07-16T00:18:28.915Z,21.30
2018-07-16T00:20:57.853Z,21.21
2018-07-16T00:23:26.611Z,21.28
2018-07-16T00:25:55.383Z,21.16
2018-07-16T00:28:24.741Z,21.09
2018-07-16T00:30:53.987Z,21.29
2018-07-16T00:33:22.668Z,21.32
2018-07-16T00:35:51.415Z,21.17
2018-07-16T00:38:20.091Z,21.25
2018-07-16T00:40:48.746Z,21.29
2018-07-16T00:43:17.446Z,21.38
2018-07-16T00:45:45.983Z,21.54
2018-07-16T00:48:14.560Z,21.49
2018-07-16T00:50:43.269Z,21.43
2018-07-16T00:53:11.844Z,21.54
2018-07-16T00:55:40.633Z,21.53
2018-07-16T00:58:09.379Z,21.58
2018-07-16T01:00:38.035Z,21.56
2018-07-16T01:03:06.756Z,21.51
2018-07-16T01:05:35.540Z,21.46
2018-07-16T01:08:04.164Z,21.53
2018-07-16T01:10:32.704Z,21.59
2018-07-16T01:13:01.569Z,21.39
2018-07-16T01:15:30.275Z,21.52
2018-07-16T01:17:59.027Z,21.42
2018-07-16T01:20:28.087Z,21.50
2018-07-16T01:22:56.743Z,21.49
2018-07-16T01:25:25.491Z,21.45
2018-07-16T01:27:54.324Z,21.48
2018-07-16T01:30:22.938Z,21.56
2018-07-16T01:32:51.551Z,21.64
2018-07-16T01:35:20.314Z,21.19
2018-07-16T01:37:49.215Z,21.32
2018-07-16T01:40:17.956Z,21.39
2018-07-16T01:42:46.699Z,21.45
2018-07-16T01:45:15.326Z,21.31
2018-07-16T01:47:43.964Z,21.39
2018-07-16T01:50:12.759Z,21.38
2018-07-16T01:52:41.394Z,21.15
2018-07-16T01:55:10.241Z,21.15
2018-07-16T01:57:39.369Z,21.16
2018-07-16T02:00:08.008Z,21.21
2018-07-16T02:02:36.709Z,21.18
2018-07-16T02:05:05.619Z,21.07
2018-07-16T02:07:34.319Z,20.96
2018-07-16T02:10:02.933Z,20.94
2018-07-16T02:12:31.973Z,21.08
2018-07-16T02:15:00.619Z,20.93
2018-07-16T02:17:29.304Z,20.94
2018-07-16T02:19:58.025Z,21.02
2018-07-16T02:22:26.744Z,21.12
2018-07-16T02:24:55.386Z,21.12
2018-07-16T02:27:24.243Z,21.11
2018-07-16T02:29:53.028Z,21.23
2018-07-16T02:32:21.689Z,21.29
2018-07-16T02:34:50.340Z,21.29
2018-07-16T02:37:18.965Z,21.24
2018-07-16T02:39:47.609Z,21.26
2018-07-16T02:42:16.518Z,21.27
2018-07-16T02:44:45.128Z,21.16
2018-07-16T02:47:13.691Z,21.11
2018-07-16T02:49:42.735Z,21.10
2018-07-16T02:52:11.375Z,21.08
2018-07-16T02:54:40.016Z,21.07
2018-07-16T02:57:08.839Z,20.89
2018-07-16T02:59:37.483Z,21.01
2018-07-16T03:02:06.632Z,20.93
2018-07-16T03:04:35.287Z,21.01
2018-07-16T03:07:03.996Z,20.88
2018-07-16T03:09:32.647Z,20.92
2018-07-16T03:12:01.456Z,20.92
2018-07-16T03:14:30.299Z,20.95
2018-07-16T03:16:59.023Z,20.76
2018-07-16T03:19:28.128Z,20.79
2018-07-16T03:21:57.051Z,20.86
2018-07-16T03:24:25.736Z,20.82
2018-07-16T03:26:54.695Z,20.89
2018-07-16T03:29:23.620Z,20.80
2018-07-16T03:31:52.420Z,20.34
2018-07-16T03:34:21.184Z,20.42
2018-07-16T03:36:49.875Z,20.59
2018-07-16T03:39:18.571Z,20.80
2018-07-16T03:41:47.545Z,20.78
2018-07-16T03:44:16.282Z,20.68
2018-07-16T03:46:44.876Z,20.56
2018-07-16T03:49:13.595Z,20.44
2018-07-16T03:51:42.356Z,20.55
2018-07-16T03:54:10.927Z,20.62
2018-07-16T03:56:39.691Z,20.61
2018-07-16T03:59:08.361Z,20.60
2018-07-16T04:01:37.205Z,20.39
2018-07-16T04:04:06.053Z,20.50
2018-07-16T04:06:34.674Z,20.50
2018-07-16T04:09:03.359Z,20.47
2018-07-16T04:11:32.079Z,20.36
2018-07-16T04:14:01.038Z,20.41
2018-07-16T04:16:29.846Z,20.47
2018-07-16T04:18:58.700Z,20.26
2018-07-16T04:21:27.276Z,19.69
2018-07-16T04:23:56.062Z,19.82
2018-07-16T04:26:24.921Z,20.17
2018-07-16T04:28:53.650Z,20.30
2018-07-16T04:31:22.422Z,20.60
2018-07-16T04:33:51.268Z,20.71
2018-07-16T04:36:19.991Z,20.45
2018-07-16T04:38:48.715Z,20.44
2018-07-16T04:41:17.321Z,20.50
2018-07-16T04:43:45.973Z,19.76
2018-07-16T04:46:14.551Z,19.70
2018-07-16T04:48:43.431Z,20.15
2018-07-16T04:51:12.051Z,20.25
2018-07-16T04:53:40.813Z,20.35
2018-07-16T04:56:09.620Z,20.37
2018-07-16T04:58:38.363Z,19.86
2018-07-16T05:01:07.514Z,19.62
2018-07-16T05:03:36.232Z,19.89
2018-07-16T05:06:04.952Z,19.91
2018-07-16T05:08:34.090Z,20.03
2018-07-16T05:11:02.990Z,20.15
2018-07-16T05:13:31.884Z,20.01
2018-07-16T05:16:00.628Z,20.21
2018-07-16T05:18:29.439Z,20.22
2018-07-16T05:20:58.166Z,20.63
2018-07-16T05:23:26.800Z,20.75
2018-07-16T05:25:55.629Z,20.20
2018-07-16T05:28:24.417Z,20.48
2018-07-16T05:30:53.050Z,20.61
2018-07-16T05:33:21.859Z,20.23
2018-07-16T05:35:50.539Z,20.32
2018-07-16T05:38:19.349Z,20.63
2018-07-16T05:40:48.167Z,20.37
2018-07-16T05:43:16.891Z,20.41
2018-07-16T05:45:45.581Z,20.64
2018-07-16T05:48:14.184Z,20.75
2018-07-16T05:50:42.791Z,21.12
2018-07-16T05:53:11.412Z,20.50
2018-07-16T05:55:40.172Z,20.85
2018-07-16T05:58:08.922Z,21.16
2018-07-16T06:00:37.584Z,21.20
2018-07-16T06:03:07.139Z,20.98
2018-07-16T06:05:35.774Z,20.91
2018-07-16T06:08:04.584Z,21.51
2018-07-16T06:10:33.496Z,21.88
2018-07-16T06:13:02.242Z,21.97
2018-07-16T06:15:30.887Z,21.67
2018-07-16T06:17:59.611Z,21.91
2018-07-16T06:20:28.256Z,22.02
2018-07-16T06:22:57.028Z,22.16
2018-07-16T06:25:25.830Z,21.90
2018-07-16T06:27:55.480Z,22.10
2018-07-16T06:30:24.578Z,22.15
2018-07-16T06:32:55.531Z,22.27
2018-07-16T06:35:25.101Z,22.40
2018-07-16T06:37:54.956Z,22.95
2018-07-16T06:40:25.509Z,23.16
2018-07-16T06:42:55.299Z,22.72
2018-07-16T06:45:24.139Z,23.07
2018-07-16T06:47:53.752Z,23.53
2018-07-16T06:50:23.854Z,22.92
2018-07-16T06:52:53.851Z,23.71
2018-07-16T06:55:25.301Z,24.16
2018-07-16T06:57:55.908Z,23.92
2018-07-16T07:00:26.611Z,24.37
2018-07-16T07:02:56.876Z,24.41
2018-07-16T07:05:25.419Z,24.37
2018-07-16T07:07:54.321Z,24.34
2018-07-16T07:10:23.169Z,24.61
2018-07-16T07:12:51.947Z,24.76
2018-07-16T07:15:21.043Z,24.87
2018-07-16T07:17:50.214Z,24.94
2018-07-16T07:20:19.899Z,25.13
2018-07-16T07:22:50.296Z,25.39
2018-07-16T07:25:18.999Z,25.56
2018-07-16T07:27:47.732Z,25.69
2018-07-16T07:30:16.479Z,25.88
2018-07-16T07:32:45.223Z,26.00
2018-07-16T07:35:13.986Z,25.85
2018-07-16T07:37:42.645Z,25.85
2018-07-16T07:40:11.255Z,26.00
2018-07-16T07:42:40.003Z,25.95
2018-07-16T07:45:08.835Z,25.86
2018-07-16T07:47:37.671Z,25.73
2018-07-16T07:50:06.272Z,25.29
2018-07-16T07:52:34.984Z,25.37
2018-07-16T07:55:04.036Z,26.93
2018-07-16T07:57:32.407Z,27.97
2018-07-16T08:00:01.376Z,28.68
2018-07-16T08:02:30.147Z,28.53
2018-07-16T08:04:59.107Z,28.55
2018-07-16T08:07:28.066Z,28.60
2018-07-16T08:09:56.807Z,29.05
2018-07-16T08:12:25.483Z,29.05
2018-07-16T08:14:54.191Z,28.30
2018-07-16T08:17:23.007Z,27.69
2018-07-16T08:19:51.690Z,27.91
2018-07-16T08:22:20.598Z,27.85
2018-07-16T08:24:49.187Z,28.02
2018-07-16T08:27:18.041Z,28.01
2018-07-16T08:29:46.776Z,28.08
2018-07-16T08:32:15.352Z,28.42
2018-07-16T08:34:44.016Z,28.62
2018-07-16T08:37:12.723Z,28.47
2018-07-16T08:39:41.648Z,28.47
2018-07-16T08:42:10.385Z,28.50
2018-07-16T08:44:39.111Z,28.23
2018-07-16T08:47:07.744Z,28.44
2018-07-16T08:49:36.477Z,28.58
2018-07-16T08:52:05.307Z,28.32
2018-07-16T08:54:33.955Z,28.56
2018-07-16T08:57:02.702Z,28.39
2018-07-16T08:59:31.556Z,27.39
2018-07-16T09:02:00.275Z,27.88
2018-07-16T09:04:29.004Z,27.87
2018-07-16T09:06:57.838Z,28.07
2018-07-16T09:09:26.477Z,28.67
2018-07-16T09:11:55.184Z,28.03
2018-07-16T09:14:23.904Z,28.24
2018-07-16T09:16:52.594Z,28.54
2018-07-16T09:19:21.378Z,28.78
2018-07-16T09:21:50.071Z,30.03
2018-07-16T09:24:18.963Z,31.43
2018-07-16T09:26:47.584Z,31.34
2018-07-16T09:29:16.311Z,33.30
2018-07-16T09:31:44.851Z,32.93
2018-07-16T09:34:13.543Z,34.70
2018-07-16T09:36:42.251Z,33.87
2018-07-16T09:39:10.988Z,33.60
2018-07-16T09:41:40.520Z,31.82
2018-07-16T09:44:09.574Z,31.74
2018-07-16T09:46:38.198Z,31.50
2018-07-16T09:49:06.888Z,31.17
2018-07-16T09:51:35.487Z,32.26
2018-07-16T09:54:04.076Z,34.26
2018-07-16T09:56:32.647Z,36.10
2018-07-16T09:59:01.383Z,36.32
2018-07-16T10:01:35.244Z,37.56
2018-07-16T10:04:04.371Z,36.78
2018-07-16T10:06:33.254Z,37.72
2018-07-16T10:09:01.802Z,36.28
2018-07-16T10:11:30.536Z,35.83
2018-07-16T10:13:59.291Z,37.84
2018-07-16T10:16:28.116Z,36.59
2018-07-16T10:18:57.087Z,37.79
2018-07-16T10:21:25.755Z,39.22
2018-07-16T10:23:54.419Z,39.01
2018-07-16T10:26:23.352Z,39.01
2018-07-16T10:28:52.023Z,39.14
2018-07-16T10:31:20.601Z,39.23
2018-07-16T10:33:49.655Z,39.20
2018-07-16T10:36:18.824Z,38.98
2018-07-16T10:38:47.463Z,39.29
2018-07-16T10:41:16.116Z,39.52
2018-07-16T10:43:44.730Z,39.50
2018-07-16T10:46:13.410Z,40.31
2018-07-16T10:48:42.455Z,40.67
2018-07-16T10:51:11.021Z,41.70
2018-07-16T10:53:39.733Z,40.99
2018-07-16T10:56:08.460Z,40.72
2018-07-16T10:58:37.043Z,42.05
2018-07-16T11:01:06.193Z,42.31
2018-07-16T11:03:34.924Z,41.97
2018-07-16T11:06:09.296Z,42.65
2018-07-16T11:08:37.965Z,42.00
2018-07-16T11:11:06.825Z,39.90
2018-07-16T11:13:35.431Z,41.65
2018-07-16T11:16:04.048Z,41.64
2018-07-16T11:18:32.790Z,42.88
2018-07-16T11:21:01.588Z,44.16
2018-07-16T11:23:30.283Z,43.88
2018-07-16T11:25:58.990Z,43.88
2018-07-16T11:28:27.751Z,42.38
2018-07-16T11:30:56.904Z,43.54
2018-07-16T11:33:25.531Z,42.80
2018-07-16T11:35:54.296Z,43.10
2018-07-16T11:38:22.801Z,43.88
2018-07-16T11:40:51.426Z,43.97
2018-07-16T11:43:20.198Z,43.38
2018-07-16T11:45:48.843Z,43.93
2018-07-16T11:48:17.474Z,43.18
2018-07-16T11:50:46.191Z,43.28
2018-07-16T11:53:14.764Z,41.83
2018-07-16T11:55:43.643Z,42.77
2018-07-16T11:58:12.353Z,42.54
2018-07-16T12:00:41.132Z,43.71
2018-07-16T12:03:10.227Z,43.24
2018-07-16T12:05:39.105Z,43.94
2018-07-16T12:08:08.344Z,43.46
2018-07-16T12:10:37.245Z,45.34
2018-07-16T12:13:06.154Z,44.32
2018-07-16T12:15:34.927Z,44.56
2018-07-16T12:18:03.631Z,44.83
2018-07-16T12:20:32.716Z,43.05
2018-07-16T12:23:01.339Z,42.62
2018-07-16T12:25:29.964Z,42.82
2018-07-16T12:27:58.708Z,43.15
2018-07-16T12:30:27.336Z,43.94
2018-07-16T12:32:56.652Z,43.20
2018-07-16T12:35:25.284Z,45.10
2018-07-16T12:37:54.004Z,44.84
2018-07-16T12:40:22.728Z,45.61
2018-07-16T12:42:51.332Z,45.87
2018-07-16T12:45:20.052Z,46.32
2018-07-16T12:47:48.707Z,45.57
2018-07-16T12:50:17.386Z,45.06
2018-07-16T12:52:46.144Z,45.69
2018-07-16T12:55:14.952Z,45.86
2018-07-16T12:57:44.150Z,46.12
2018-07-16T13:00:12.783Z,45.56
2018-07-16T13:02:41.441Z,44.14
2018-07-16T13:05:10.206Z,42.43
2018-07-16T13:07:38.839Z,41.64
2018-07-16T13:10:07.879Z,42.01
2018-07-16T13:12:36.563Z,42.15
2018-07-16T13:15:05.477Z,42.57
2018-07-16T13:17:34.231Z,41.19
2018-07-16T13:20:02.904Z,41.98
2018-07-16T13:22:31.623Z,41.03
2018-07-16T13:25:00.472Z,42.39
2018-07-16T13:27:29.174Z,44.06
2018-07-16T13:29:58.118Z,42.18
2018-07-16T13:32:26.743Z,42.78
2018-07-16T13:34:55.628Z,42.00
2018-07-16T13:37:24.363Z,41.23
2018-07-16T13:39:53.048Z,41.89
2018-07-16T13:42:21.716Z,41.42
2018-07-16T13:44:50.440Z,42.03
2018-07-16T13:47:19.572Z,43.10
2018-07-16T13:49:48.312Z,42.89
2018-07-16T13:52:16.932Z,41.35
2018-07-16T13:54:45.643Z,38.95
2018-07-16T13:57:14.356Z,38.75
2018-07-16T13:59:43.078Z,38.69
2018-07-16T14:02:11.749Z,38.27
2018-07-16T14:04:40.949Z,38.62
2018-07-16T14:07:09.589Z,39.56
2018-07-16T14:09:38.223Z,40.46
2018-07-16T14:12:07.831Z,40.69
2018-07-16T14:14:36.716Z,41.07
2018-07-16T14:17:05.303Z,40.64
2018-07-16T14:19:35.912Z,41.63
2018-07-16T14:22:05.161Z,40.01
2018-07-16T14:24:34.215Z,39.63
2018-07-16T14:27:03.001Z,39.48
2018-07-16T14:29:31.951Z,38.93
2018-07-16T14:32:00.643Z,40.26
2018-07-16T14:34:29.193Z,39.71
2018-07-16T14:36:57.919Z,39.59
2018-07-16T14:39:26.639Z,39.85
2018-07-16T14:41:55.288Z,38.96
2018-07-16T14:44:24.056Z,38.69
2018-07-16T14:46:52.775Z,38.41
2018-07-16T14:49:21.509Z,39.10
2018-07-16T14:51:50.339Z,39.96
2018-07-16T14:54:19.103Z,41.09
2018-07-16T14:56:47.864Z,39.44
2018-07-16T14:59:16.633Z,40.35
2018-07-16T15:01:45.515Z,39.39
2018-07-16T15:04:14.136Z,39.81
2018-07-16T15:06:43.055Z,39.40
2018-07-16T15:09:12.279Z,39.55
2018-07-16T15:11:40.943Z,38.82
2018-07-16T15:14:10.056Z,38.21
2018-07-16T15:16:38.779Z,37.04
2018-07-16T15:19:07.626Z,35.39
2018-07-16T15:21:37.808Z,35.26
2018-07-16T15:24:06.696Z,33.82
2018-07-16T15:26:36.183Z,33.46
2018-07-16T15:29:05.155Z,33.39
2018-07-16T15:31:33.947Z,33.16
2018-07-16T15:34:03.560Z,32.86
2018-07-16T15:36:32.896Z,33.06
2018-07-16T15:39:01.668Z,33.29
2018-07-16T15:41:31.173Z,32.45
2018-07-16T15:44:00.462Z,32.52
2018-07-16T15:46:29.888Z,32.40
2018-07-16T15:48:58.633Z,32.61
2018-07-16T15:51:27.777Z,32.76
2018-07-16T15:53:56.432Z,32.76
2018-07-16T15:56:25.100Z,32.63
2018-07-16T15:58:53.996Z,31.63
2018-07-16T16:01:22.619Z,31.70
2018-07-16T16:55:37.856Z,30.17
2018-07-16T16:58:06.412Z,30.10
2018-07-16T17:00:34.955Z,30.04
2018-07-16T17:03:04.208Z,30.04
2018-07-16T17:05:32.803Z,30.21
2018-07-16T17:08:01.359Z,30.10
2018-07-16T17:10:29.892Z,30.32
2018-07-16T17:12:58.524Z,30.49
2018-07-16T17:15:27.117Z,30.39
2018-07-16T17:17:55.700Z,29.57
2018-07-16T17:20:24.604Z,29.55
2018-07-16T17:22:54.191Z,29.71
2018-07-16T17:25:22.994Z,30.01
2018-07-16T17:27:51.809Z,29.95
2018-07-16T17:30:20.372Z,29.59
2018-07-16T17:32:49.076Z,29.62
2018-07-16T17:35:17.655Z,29.79
2018-07-16T17:37:46.240Z,29.54
2018-07-16T17:40:14.885Z,29.53
2018-07-16T17:42:44.362Z,29.20
2018-07-16T17:45:12.970Z,29.37
2018-07-16T17:47:41.527Z,29.33
2018-07-16T17:50:10.064Z,29.15
2018-07-16T17:52:38.635Z,29.27
2018-07-16T17:55:07.365Z,29.35
2018-07-16T17:57:36.192Z,29.40
2018-07-16T18:00:04.991Z,29.38
2018-07-16T18:02:33.569Z,29.39
2018-07-16T18:05:02.374Z,29.39
2018-07-16T18:07:30.964Z,29.26
2018-07-16T18:09:59.632Z,29.25
2018-07-16T18:12:28.285Z,29.35
2018-07-16T18:14:57.081Z,29.20
2018-07-16T18:17:25.699Z,29.25
2018-07-16T18:19:54.371Z,29.17
2018-07-16T18:22:23.105Z,28.95
2018-07-16T18:24:51.811Z,29.04
2018-07-16T18:27:20.379Z,28.95
2018-07-16T18:29:48.995Z,28.84
2018-07-16T18:32:17.776Z,28.78
2018-07-16T18:34:46.788Z,28.58
2018-07-16T18:37:15.678Z,28.40
2018-07-16T18:39:44.367Z,28.32
2018-07-16T18:42:12.963Z,28.24
2018-07-16T18:44:41.504Z,27.96
2018-07-16T18:47:10.231Z,27.85
2018-07-16T18:49:38.759Z,28.03
2018-07-16T18:52:07.307Z,28.02
2018-07-16T18:54:35.978Z,28.01
2018-07-16T18:57:04.581Z,27.81
2018-07-16T18:59:33.226Z,27.71
2018-07-16T19:02:01.828Z,27.69
2018-07-16T19:04:31.190Z,27.50
2018-07-16T19:07:04.828Z,27.34
2018-07-16T19:09:34.085Z,27.36
2018-07-16T19:12:02.764Z,27.26
2018-07-16T19:14:31.680Z,27.25
2018-07-16T19:17:00.508Z,27.18
2018-07-16T19:19:29.068Z,27.08
2018-07-16T19:21:57.613Z,26.97
2018-07-16T19:24:26.459Z,26.87
2018-07-16T19:26:55.123Z,26.77
2018-07-16T19:29:23.658Z,26.67
2018-07-16T19:31:52.215Z,26.58
2018-07-16T19:34:20.788Z,26.49
2018-07-16T19:36:49.505Z,26.41
2018-07-16T19:39:19.138Z,26.36
2018-07-16T19:41:47.615Z,26.31
2018-07-16T19:44:16.700Z,26.23
2018-07-16T19:46:45.236Z,26.17
2018-07-16T19:49:14.880Z,26.13
2018-07-16T19:51:43.537Z,26.04
2018-07-16T19:54:12.463Z,26.04
2018-07-16T19:56:41.020Z,25.98
2018-07-16T19:59:09.568Z,25.90
2018-07-16T20:01:38.495Z,25.80
2018-07-16T20:04:07.070Z,25.74
2018-07-16T20:06:35.654Z,25.69
2018-07-16T20:09:05.152Z,25.52
2018-07-16T20:11:34.580Z,25.48
2018-07-16T20:14:03.166Z,25.54
2018-07-16T20:16:41.676Z,25.48
2018-07-16T20:19:10.719Z,25.46
2018-07-16T20:21:39.267Z,25.39
2018-07-16T20:24:07.932Z,25.37
2018-07-16T20:26:36.521Z,25.31
2018-07-16T20:29:05.095Z,25.37
2018-07-16T20:31:33.836Z,25.48
2018-07-16T20:34:02.401Z,25.48
2018-07-16T20:36:31.339Z,25.31
2018-07-16T20:39:00.045Z,24.81
2018-07-16T20:41:28.588Z,25.06
2018-07-16T20:44:00.567Z,24.97
2018-07-16T20:46:29.174Z,24.96
2018-07-16T20:48:57.764Z,24.90
2018-07-16T20:51:26.355Z,24.74
2018-07-16T20:53:54.929Z,24.81
2018-07-16T20:56:23.529Z,24.76
2018-07-16T20:58:52.077Z,24.75
2018-07-16T21:01:20.644Z,24.88
2018-07-16T21:03:49.240Z,24.97
2018-07-16T21:06:17.804Z,24.92
2018-07-16T21:08:46.392Z,24.59
2018-07-16T21:11:15.073Z,24.91
2018-07-16T21:13:43.628Z,24.94
2018-07-16T21:16:12.230Z,24.81
2018-07-16T21:18:40.789Z,24.87
2018-07-16T21:21:09.552Z,24.85
2018-07-16T21:23:38.174Z,24.69
2018-07-16T21:26:06.822Z,24.63
2018-07-16T21:28:35.387Z,24.50
2018-07-16T21:31:04.044Z,24.46
2018-07-16T21:33:33.200Z,24.43
2018-07-16T21:36:01.741Z,24.30
2018-07-16T21:38:30.318Z,24.26
2018-07-16T21:40:58.902Z,24.16
2018-07-16T21:43:28.050Z,23.96
2018-07-16T21:45:56.733Z,23.64
2018-07-16T21:48:25.316Z,23.76
2018-07-16T21:50:53.940Z,23.96
2018-07-16T21:53:22.509Z,23.85
2018-07-16T21:55:51.112Z,23.72
2018-07-16T21:58:19.698Z,23.89
2018-07-16T22:00:48.707Z,23.88
2018-07-16T22:03:17.592Z,23.75
2018-07-16T22:05:46.424Z,23.70
2018-07-16T22:08:15.213Z,23.72
2018-07-16T22:10:43.895Z,23.54
2018-07-16T22:13:12.453Z,23.37
2018-07-16T22:15:40.992Z,23.27
2018-07-16T22:18:09.851Z,23.04
2018-07-16T22:20:38.399Z,23.16
2018-07-16T22:23:07.199Z,23.04
2018-07-16T22:25:35.736Z,22.86
2018-07-16T22:28:04.287Z,22.90
2018-07-16T22:30:32.883Z,22.90
2018-07-16T22:33:01.404Z,22.86
2018-07-16T22:35:29.967Z,22.82
2018-07-16T22:37:58.503Z,22.82
2018-07-16T22:40:27.047Z,22.60
2018-07-16T22:42:55.594Z,22.48
2018-07-16T22:45:24.122Z,22.45
2018-07-16T22:47:52.740Z,22.56
2018-07-16T22:52:49.090Z,22.56
2018-07-16T22:55:17.644Z,22.38
2018-07-16T22:57:46.180Z,22.28
2018-07-16T23:00:14.839Z,22.35
2018-07-16T23:02:43.363Z,22.28
2018-07-16T23:05:11.883Z,22.22
2018-07-16T23:07:40.475Z,22.13
2018-07-16T23:10:09.228Z,22.09
2018-07-16T23:12:38.235Z,22.15
2018-07-16T23:15:07.311Z,22.17
2018-07-16T23:17:35.848Z,21.94
2018-07-16T23:20:04.444Z,22.06
2018-07-16T23:22:37.598Z,22.03
2018-07-16T23:25:06.785Z,21.96
2018-07-16T23:27:35.315Z,21.93
2018-07-16T23:30:03.855Z,21.72
2018-07-16T23:32:32.390Z,21.66
2018-07-16T23:35:00.907Z,21.62
2018-07-16T23:37:29.566Z,21.61
2018-07-16T23:39:58.172Z,21.49
2018-07-16T23:42:33.052Z,21.57
2018-07-16T23:45:01.783Z,21.38
2018-07-16T23:47:30.572Z,21.42
2018-07-16T23:49:59.297Z,21.46
2018-07-16T23:52:28.406Z,21.21
2018-07-16T23:54:57.101Z,21.19
2018-07-16T23:57:25.664Z,21.36
2018-07-16T23:59:54.183Z,21.29
